sensor_id;sensor_type;location;lat;lon;timestamp;P1;durP1;ratioP1;P2;durP2;ratioP2
33268;SDS011;19640;50.944;5.260;2022-07-23T00:01:17;7.05;;;6.30;;
33268;SDS011;19640;50.944;5.260;2022-07-23T00:03:42;7.45;;;6.75;;
33268;SDS011;19640;50.944;5.260;2022-07-23T00:06:08;8.25;;;7.30;;
33268;SDS011;19640;50.944;5.260;2022-07-23T00:08:34;16.55;;;7.38;;
33268;SDS011;19640;50.944;5.260;2022-07-23T00:10:59;9.88;;;6.30;;
33268;SDS011;19640;50.944;5.260;2022-07-23T00:13:25;9.73;;;6.43;;
33268;SDS011;19640;50.944;5.260;2022-07-23T00:15:52;11.38;;;6.72;;
33268;SDS011;19640;50.944;5.260;2022-07-23T00:18:17;10.23;;;6.40;;
33268;SDS011;19640;50.944;5.260;2022-07-23T00:20:43;7.35;;;6.60;;
33268;SDS011;19640;50.944;5.260;2022-07-23T00:23:09;8.40;;;6.32;;
33268;SDS011;19640;50.944;5.260;2022-07-23T00:25:34;7.53;;;6.45;;
33268;SDS011;19640;50.944;5.260;2022-07-23T00:28:00;7.70;;;6.40;;
33268;SDS011;19640;50.944;5.260;2022-07-23T00:30:27;10.15;;;6.50;;
33268;SDS011;19640;50.944;5.260;2022-07-23T00:33:00;10.27;;;6.25;;
33268;SDS011;19640;50.944;5.260;2022-07-23T00:35:29;9.80;;;5.60;;
33268;SDS011;19640;50.944;5.260;2022-07-23T00:37:56;9.90;;;6.38;;
33268;SDS011;19640;50.944;5.260;2022-07-23T00:40:23;7.80;;;5.88;;
33268;SDS011;19640;50.944;5.260;2022-07-23T00:42:50;7.28;;;6.57;;
33268;SDS011;19640;50.944;5.260;2022-07-23T00:45:16;10.88;;;6.60;;
33268;SDS011;19640;50.944;5.260;2022-07-23T00:47:42;12.77;;;6.40;;
33268;SDS011;19640;50.944;5.260;2022-07-23T00:50:08;9.20;;;6.20;;
33268;SDS011;19640;50.944;5.260;2022-07-23T00:52:35;7.85;;;6.28;;
33268;SDS011;19640;50.944;5.260;2022-07-23T00:55:02;10.85;;;6.95;;
33268;SDS011;19640;50.944;5.260;2022-07-23T00:57:30;7.28;;;6.63;;
33268;SDS011;19640;50.944;5.260;2022-07-23T00:59:56;7.55;;;6.18;;
33268;SDS011;19640;50.944;5.260;2022-07-23T01:02:23;7.72;;;5.88;;
33268;SDS011;19640;50.944;5.260;2022-07-23T01:04:50;6.45;;;5.85;;
33268;SDS011;19640;50.944;5.260;2022-07-23T01:07:16;6.43;;;5.82;;
33268;SDS011;19640;50.944;5.260;2022-07-23T01:09:43;6.95;;;5.57;;
33268;SDS011;19640;50.944;5.260;2022-07-23T01:12:09;6.55;;;5.45;;
33268;SDS011;19640;50.944;5.260;2022-07-23T01:14:35;6.90;;;5.65;;
33268;SDS011;19640;50.944;5.260;2022-07-23T01:17:01;5.28;;;4.78;;
33268;SDS011;19640;50.944;5.260;2022-07-23T01:19:26;10.80;;;5.65;;
33268;SDS011;19640;50.944;5.260;2022-07-23T01:21:52;7.78;;;6.63;;
33268;SDS011;19640;50.944;5.260;2022-07-23T01:24:19;7.22;;;6.38;;
33268;SDS011;19640;50.944;5.260;2022-07-23T01:26:46;6.43;;;5.80;;
33268;SDS011;19640;50.944;5.260;2022-07-23T01:29:13;9.95;;;6.57;;
33268;SDS011;19640;50.944;5.260;2022-07-23T01:31:39;6.32;;;5.72;;
33268;SDS011;19640;50.944;5.260;2022-07-23T01:34:06;6.22;;;5.63;;
33268;SDS011;19640;50.944;5.260;2022-07-23T01:36:32;8.45;;;5.45;;
33268;SDS011;19640;50.944;5.260;2022-07-23T01:38:59;7.88;;;5.20;;
33268;SDS011;19640;50.944;5.260;2022-07-23T01:41:24;5.38;;;4.82;;
33268;SDS011;19640;50.944;5.260;2022-07-23T01:43:50;5.13;;;4.63;;
33268;SDS011;19640;50.944;5.260;2022-07-23T01:46:16;9.80;;;4.88;;
33268;SDS011;19640;50.944;5.260;2022-07-23T01:48:41;10.98;;;4.57;;
33268;SDS011;19640;50.944;5.260;2022-07-23T01:51:07;5.63;;;5.13;;
33268;SDS011;19640;50.944;5.260;2022-07-23T01:53:33;6.20;;;4.95;;
33268;SDS011;19640;50.944;5.260;2022-07-23T01:55:59;6.50;;;5.80;;
33268;SDS011;19640;50.944;5.260;2022-07-23T01:58:25;6.47;;;5.30;;
33268;SDS011;19640;50.944;5.260;2022-07-23T02:00:52;9.00;;;5.80;;
33268;SDS011;19640;50.944;5.260;2022-07-23T02:03:19;6.80;;;6.10;;
33268;SDS011;19640;50.944;5.260;2022-07-23T02:05:44;8.18;;;6.55;;
33268;SDS011;19640;50.944;5.260;2022-07-23T02:08:11;6.32;;;5.72;;
33268;SDS011;19640;50.944;5.260;2022-07-23T02:10:37;5.85;;;5.20;;
33268;SDS011;19640;50.944;5.260;2022-07-23T02:13:02;7.78;;;6.15;;
33268;SDS011;19640;50.944;5.260;2022-07-23T02:15:28;8.40;;;6.10;;
33268;SDS011;19640;50.944;5.260;2022-07-23T02:17:54;8.70;;;6.50;;
33268;SDS011;19640;50.944;5.260;2022-07-23T02:20:21;8.82;;;7.53;;
33268;SDS011;19640;50.944;5.260;2022-07-23T02:22:47;8.60;;;6.63;;
33268;SDS011;19640;50.944;5.260;2022-07-23T02:25:13;11.90;;;7.15;;
33268;SDS011;19640;50.944;5.260;2022-07-23T02:27:39;6.90;;;6.28;;
33268;SDS011;19640;50.944;5.260;2022-07-23T02:30:04;9.40;;;6.47;;
33268;SDS011;19640;50.944;5.260;2022-07-23T02:32:31;7.03;;;6.32;;
33268;SDS011;19640;50.944;5.260;2022-07-23T02:34:57;6.65;;;6.03;;
33268;SDS011;19640;50.944;5.260;2022-07-23T02:37:22;9.32;;;6.50;;
33268;SDS011;19640;50.944;5.260;2022-07-23T02:39:48;6.53;;;5.88;;
33268;SDS011;19640;50.944;5.260;2022-07-23T02:42:14;8.95;;;6.18;;
33268;SDS011;19640;50.944;5.260;2022-07-23T02:44:40;13.02;;;6.03;;
33268;SDS011;19640;50.944;5.260;2022-07-23T02:47:05;9.18;;;5.93;;
33268;SDS011;19640;50.944;5.260;2022-07-23T02:49:31;5.50;;;4.97;;
33268;SDS011;19640;50.944;5.260;2022-07-23T02:51:57;11.30;;;4.65;;
33268;SDS011;19640;50.944;5.260;2022-07-23T02:54:23;6.70;;;5.50;;
33268;SDS011;19640;50.944;5.260;2022-07-23T02:56:48;8.07;;;5.82;;
33268;SDS011;19640;50.944;5.260;2022-07-23T02:59:16;10.82;;;6.22;;
33268;SDS011;19640;50.944;5.260;2022-07-23T03:01:42;10.20;;;5.10;;
33268;SDS011;19640;50.944;5.260;2022-07-23T03:04:08;6.13;;;5.63;;
33268;SDS011;19640;50.944;5.260;2022-07-23T03:06:33;7.07;;;5.40;;
33268;SDS011;19640;50.944;5.260;2022-07-23T03:08:59;6.90;;;6.05;;
33268;SDS011;19640;50.944;5.260;2022-07-23T03:11:24;7.10;;;6.50;;
33268;SDS011;19640;50.944;5.260;2022-07-23T03:13:50;8.70;;;6.07;;
33268;SDS011;19640;50.944;5.260;2022-07-23T03:16:16;6.40;;;5.53;;
33268;SDS011;19640;50.944;5.260;2022-07-23T03:18:41;7.72;;;5.75;;
33268;SDS011;19640;50.944;5.260;2022-07-23T03:21:07;10.00;;;5.80;;
33268;SDS011;19640;50.944;5.260;2022-07-23T03:23:35;6.93;;;5.50;;
33268;SDS011;19640;50.944;5.260;2022-07-23T03:26:01;5.47;;;4.97;;
33268;SDS011;19640;50.944;5.260;2022-07-23T03:28:26;5.32;;;4.75;;
33268;SDS011;19640;50.944;5.260;2022-07-23T03:30:52;5.28;;;4.57;;
33268;SDS011;19640;50.944;5.260;2022-07-23T03:33:18;5.85;;;3.88;;
33268;SDS011;19640;50.944;5.260;2022-07-23T03:35:46;6.93;;;4.32;;
33268;SDS011;19640;50.944;5.260;2022-07-23T03:38:12;8.32;;;5.55;;
33268;SDS011;19640;50.944;5.260;2022-07-23T03:40:38;6.63;;;5.05;;
33268;SDS011;19640;50.944;5.260;2022-07-23T03:43:04;7.70;;;5.43;;
33268;SDS011;19640;50.944;5.260;2022-07-23T03:45:31;6.68;;;4.88;;
33268;SDS011;19640;50.944;5.260;2022-07-23T03:47:56;5.47;;;4.95;;
33268;SDS011;19640;50.944;5.260;2022-07-23T03:50:22;7.25;;;5.15;;
33268;SDS011;19640;50.944;5.260;2022-07-23T03:52:48;10.23;;;6.00;;
33268;SDS011;19640;50.944;5.260;2022-07-23T03:55:14;8.85;;;6.35;;
33268;SDS011;19640;50.944;5.260;2022-07-23T03:57:40;7.28;;;6.57;;
33268;SDS011;19640;50.944;5.260;2022-07-23T04:00:06;6.15;;;5.55;;
33268;SDS011;19640;50.944;5.260;2022-07-23T04:02:34;6.65;;;6.05;;
33268;SDS011;19640;50.944;5.260;2022-07-23T04:05:00;11.35;;;5.85;;
33268;SDS011;19640;50.944;5.260;2022-07-23T04:07:26;5.95;;;5.35;;
33268;SDS011;19640;50.944;5.260;2022-07-23T04:09:52;6.95;;;4.97;;
33268;SDS011;19640;50.944;5.260;2022-07-23T04:12:18;9.82;;;5.60;;
33268;SDS011;19640;50.944;5.260;2022-07-23T04:14:43;6.93;;;6.18;;
33268;SDS011;19640;50.944;5.260;2022-07-23T04:17:09;7.70;;;6.05;;
33268;SDS011;19640;50.944;5.260;2022-07-23T04:19:35;11.63;;;5.65;;
33268;SDS011;19640;50.944;5.260;2022-07-23T04:22:04;5.85;;;4.22;;
33268;SDS011;19640;50.944;5.260;2022-07-23T04:24:31;3.88;;;3.47;;
33268;SDS011;19640;50.944;5.260;2022-07-23T04:26:57;5.85;;;4.75;;
33268;SDS011;19640;50.944;5.260;2022-07-23T04:29:23;7.07;;;4.53;;
33268;SDS011;19640;50.944;5.260;2022-07-23T04:31:49;5.25;;;4.75;;
33268;SDS011;19640;50.944;5.260;2022-07-23T04:34:15;5.68;;;4.82;;
33268;SDS011;19640;50.944;5.260;2022-07-23T04:36:40;6.45;;;5.85;;
33268;SDS011;19640;50.944;5.260;2022-07-23T04:39:06;7.28;;;5.32;;
33268;SDS011;19640;50.944;5.260;2022-07-23T04:41:32;7.80;;;5.80;;
33268;SDS011;19640;50.944;5.260;2022-07-23T04:43:59;6.93;;;5.80;;
33268;SDS011;19640;50.944;5.260;2022-07-23T04:46:25;6.07;;;5.25;;
33268;SDS011;19640;50.944;5.260;2022-07-23T04:48:50;4.75;;;4.35;;
33268;SDS011;19640;50.944;5.260;2022-07-23T04:51:16;5.97;;;4.72;;
33268;SDS011;19640;50.944;5.260;2022-07-23T04:53:41;7.10;;;5.40;;
33268;SDS011;19640;50.944;5.260;2022-07-23T04:56:07;5.05;;;4.25;;
33268;SDS011;19640;50.944;5.260;2022-07-23T04:58:33;5.60;;;5.10;;
33268;SDS011;19640;50.944;5.260;2022-07-23T05:00:58;5.57;;;5.07;;
33268;SDS011;19640;50.944;5.260;2022-07-23T05:03:24;6.47;;;5.88;;
33268;SDS011;19640;50.944;5.260;2022-07-23T05:05:50;8.60;;;6.13;;
33268;SDS011;19640;50.944;5.260;2022-07-23T05:08:15;7.68;;;6.15;;
33268;SDS011;19640;50.944;5.260;2022-07-23T05:10:41;8.35;;;6.70;;
33268;SDS011;19640;50.944;5.260;2022-07-23T05:13:06;7.28;;;6.47;;
33268;SDS011;19640;50.944;5.260;2022-07-23T05:15:32;6.93;;;6.20;;
33268;SDS011;19640;50.944;5.260;2022-07-23T05:17:58;10.25;;;6.53;;
33268;SDS011;19640;50.944;5.260;2022-07-23T05:20:23;7.10;;;6.40;;
33268;SDS011;19640;50.944;5.260;2022-07-23T05:22:49;7.82;;;7.07;;
33268;SDS011;19640;50.944;5.260;2022-07-23T05:25:15;8.25;;;7.25;;
33268;SDS011;19640;50.944;5.260;2022-07-23T05:27:40;7.50;;;6.80;;
33268;SDS011;19640;50.944;5.260;2022-07-23T05:30:06;8.90;;;6.70;;
33268;SDS011;19640;50.944;5.260;2022-07-23T05:32:32;7.78;;;7.10;;
33268;SDS011;19640;50.944;5.260;2022-07-23T05:34:58;7.32;;;6.72;;
33268;SDS011;19640;50.944;5.260;2022-07-23T05:37:24;7.72;;;7.05;;
33268;SDS011;19640;50.944;5.260;2022-07-23T05:39:49;8.27;;;7.50;;
33268;SDS011;19640;50.944;5.260;2022-07-23T05:42:15;8.43;;;7.45;;
33268;SDS011;19640;50.944;5.260;2022-07-23T05:44:41;7.97;;;7.38;;
33268;SDS011;19640;50.944;5.260;2022-07-23T05:47:06;10.27;;;8.00;;
33268;SDS011;19640;50.944;5.260;2022-07-23T05:49:32;9.23;;;7.32;;
33268;SDS011;19640;50.944;5.260;2022-07-23T05:51:57;7.70;;;7.03;;
33268;SDS011;19640;50.944;5.260;2022-07-23T05:54:23;8.75;;;7.95;;
33268;SDS011;19640;50.944;5.260;2022-07-23T05:56:49;9.95;;;7.45;;
33268;SDS011;19640;50.944;5.260;2022-07-23T05:59:15;8.80;;;7.85;;
33268;SDS011;19640;50.944;5.260;2022-07-23T06:01:41;11.20;;;9.00;;
33268;SDS011;19640;50.944;5.260;2022-07-23T06:04:07;11.05;;;8.13;;
33268;SDS011;19640;50.944;5.260;2022-07-23T06:06:33;8.93;;;8.10;;
33268;SDS011;19640;50.944;5.260;2022-07-23T06:08:58;8.43;;;7.55;;
33268;SDS011;19640;50.944;5.260;2022-07-23T06:11:24;8.88;;;7.13;;
33268;SDS011;19640;50.944;5.260;2022-07-23T06:13:49;9.32;;;8.48;;
33268;SDS011;19640;50.944;5.260;2022-07-23T06:16:15;8.55;;;7.45;;
33268;SDS011;19640;50.944;5.260;2022-07-23T06:18:40;8.80;;;7.97;;
33268;SDS011;19640;50.944;5.260;2022-07-23T06:21:06;8.07;;;7.38;;
33268;SDS011;19640;50.944;5.260;2022-07-23T06:23:32;8.90;;;8.10;;
33268;SDS011;19640;50.944;5.260;2022-07-23T06:25:57;8.55;;;7.85;;
33268;SDS011;19640;50.944;5.260;2022-07-23T06:28:23;9.57;;;8.57;;
33268;SDS011;19640;50.944;5.260;2022-07-23T06:30:48;8.73;;;7.72;;
33268;SDS011;19640;50.944;5.260;2022-07-23T06:33:14;10.27;;;8.27;;
33268;SDS011;19640;50.944;5.260;2022-07-23T06:35:40;12.27;;;8.45;;
33268;SDS011;19640;50.944;5.260;2022-07-23T06:38:06;8.95;;;8.15;;
33268;SDS011;19640;50.944;5.260;2022-07-23T06:40:31;8.90;;;7.68;;
33268;SDS011;19640;50.944;5.260;2022-07-23T06:42:57;7.28;;;6.57;;
33268;SDS011;19640;50.944;5.260;2022-07-23T06:45:22;6.65;;;5.72;;
33268;SDS011;19640;50.944;5.260;2022-07-23T06:47:48;6.68;;;6.07;;
33268;SDS011;19640;50.944;5.260;2022-07-23T06:50:14;6.60;;;5.93;;
33268;SDS011;19640;50.944;5.260;2022-07-23T06:52:39;5.72;;;5.18;;
33268;SDS011;19640;50.944;5.260;2022-07-23T06:55:05;5.45;;;4.60;;
33268;SDS011;19640;50.944;5.260;2022-07-23T06:57:31;6.85;;;4.88;;
33268;SDS011;19640;50.944;5.260;2022-07-23T06:59:57;6.07;;;5.47;;
33268;SDS011;19640;50.944;5.260;2022-07-23T07:02:22;5.93;;;5.32;;
33268;SDS011;19640;50.944;5.260;2022-07-23T07:04:48;6.10;;;5.50;;
33268;SDS011;19640;50.944;5.260;2022-07-23T07:07:14;5.55;;;5.03;;
33268;SDS011;19640;50.944;5.260;2022-07-23T07:09:40;6.20;;;5.60;;
33268;SDS011;19640;50.944;5.260;2022-07-23T07:12:05;6.50;;;5.85;;
33268;SDS011;19640;50.944;5.260;2022-07-23T07:14:31;9.13;;;6.22;;
33268;SDS011;19640;50.944;5.260;2022-07-23T07:16:57;6.45;;;5.75;;
33268;SDS011;19640;50.944;5.260;2022-07-23T07:19:22;6.25;;;5.40;;
33268;SDS011;19640;50.944;5.260;2022-07-23T07:21:48;6.30;;;5.70;;
33268;SDS011;19640;50.944;5.260;2022-07-23T07:24:14;8.07;;;5.70;;
33268;SDS011;19640;50.944;5.260;2022-07-23T07:26:39;6.40;;;5.80;;
33268;SDS011;19640;50.944;5.260;2022-07-23T07:29:05;6.60;;;5.90;;
33268;SDS011;19640;50.944;5.260;2022-07-23T07:31:31;6.78;;;6.13;;
33268;SDS011;19640;50.944;5.260;2022-07-23T07:33:57;7.30;;;6.60;;
33268;SDS011;19640;50.944;5.260;2022-07-23T07:36:23;7.38;;;5.90;;
33268;SDS011;19640;50.944;5.260;2022-07-23T07:38:49;6.00;;;5.50;;
33268;SDS011;19640;50.944;5.260;2022-07-23T07:41:14;7.82;;;6.25;;
33268;SDS011;19640;50.944;5.260;2022-07-23T07:43:40;9.25;;;6.07;;
33268;SDS011;19640;50.944;5.260;2022-07-23T07:46:06;7.05;;;6.35;;
33268;SDS011;19640;50.944;5.260;2022-07-23T07:48:35;7.15;;;6.07;;
33268;SDS011;19640;50.944;5.260;2022-07-23T07:51:02;7.70;;;5.95;;
33268;SDS011;19640;50.944;5.260;2022-07-23T07:53:29;9.20;;;7.00;;
33268;SDS011;19640;50.944;5.260;2022-07-23T07:55:54;6.90;;;6.20;;
33268;SDS011;19640;50.944;5.260;2022-07-23T07:58:20;6.50;;;5.10;;
33268;SDS011;19640;50.944;5.260;2022-07-23T08:00:45;6.72;;;5.45;;
33268;SDS011;19640;50.944;5.260;2022-07-23T08:03:11;6.35;;;5.70;;
33268;SDS011;19640;50.944;5.260;2022-07-23T08:05:37;6.78;;;5.55;;
33268;SDS011;19640;50.944;5.260;2022-07-23T08:08:03;7.32;;;5.40;;
33268;SDS011;19640;50.944;5.260;2022-07-23T08:10:29;6.63;;;5.68;;
33268;SDS011;19640;50.944;5.260;2022-07-23T08:12:56;6.45;;;5.43;;
33268;SDS011;19640;50.944;5.260;2022-07-23T08:15:23;7.18;;;6.47;;
33268;SDS011;19640;50.944;5.260;2022-07-23T08:17:50;5.95;;;5.32;;
33268;SDS011;19640;50.944;5.260;2022-07-23T08:20:17;5.65;;;5.07;;
33268;SDS011;19640;50.944;5.260;2022-07-23T08:25:25;4.97;;;4.07;;
33268;SDS011;19640;50.944;5.260;2022-07-23T08:27:59;5.65;;;4.20;;
33268;SDS011;19640;50.944;5.260;2022-07-23T08:30:26;6.93;;;4.82;;
33268;SDS011;19640;50.944;5.260;2022-07-23T08:37:55;4.47;;;4.05;;
33268;SDS011;19640;50.944;5.260;2022-07-23T08:40:21;7.75;;;5.70;;
33268;SDS011;19640;50.944;5.260;2022-07-23T08:42:48;4.45;;;4.05;;
33268;SDS011;19640;50.944;5.260;2022-07-23T08:45:19;6.28;;;5.45;;
33268;SDS011;19640;50.944;5.260;2022-07-23T08:47:47;6.30;;;5.72;;
33268;SDS011;19640;50.944;5.260;2022-07-23T08:50:14;6.03;;;5.40;;
33268;SDS011;19640;50.944;5.260;2022-07-23T08:52:40;7.28;;;5.72;;
33268;SDS011;19640;50.944;5.260;2022-07-23T08:55:06;14.68;;;5.93;;
33268;SDS011;19640;50.944;5.260;2022-07-23T08:57:33;8.02;;;5.97;;
33268;SDS011;19640;50.944;5.260;2022-07-23T08:59:58;6.55;;;5.57;;
33268;SDS011;19640;50.944;5.260;2022-07-23T09:02:24;8.07;;;7.25;;
33268;SDS011;19640;50.944;5.260;2022-07-23T09:04:50;8.50;;;6.60;;
33268;SDS011;19640;50.944;5.260;2022-07-23T09:07:15;5.70;;;5.20;;
33268;SDS011;19640;50.944;5.260;2022-07-23T09:09:41;6.63;;;6.03;;
33268;SDS011;19640;50.944;5.260;2022-07-23T09:12:07;10.25;;;5.68;;
33268;SDS011;19640;50.944;5.260;2022-07-23T09:17:17;6.78;;;6.05;;
33268;SDS011;19640;50.944;5.260;2022-07-23T09:19:43;7.07;;;6.38;;
33268;SDS011;19640;50.944;5.260;2022-07-23T09:30:19;6.18;;;5.57;;
33268;SDS011;19640;50.944;5.260;2022-07-23T09:40:44;5.93;;;5.43;;
33268;SDS011;19640;50.944;5.260;2022-07-23T09:43:11;6.80;;;5.53;;
33268;SDS011;19640;50.944;5.260;2022-07-23T09:45:53;7.57;;;5.05;;
33268;SDS011;19640;50.944;5.260;2022-07-23T09:48:18;7.05;;;5.70;;
33268;SDS011;19640;50.944;5.260;2022-07-23T09:50:44;6.53;;;5.82;;
33268;SDS011;19640;50.944;5.260;2022-07-23T09:53:23;7.85;;;5.00;;
33268;SDS011;19640;50.944;5.260;2022-07-23T09:55:50;5.05;;;4.47;;
33268;SDS011;19640;50.944;5.260;2022-07-23T09:58:19;5.22;;;4.72;;
33268;SDS011;19640;50.944;5.260;2022-07-23T10:00:47;5.45;;;4.57;;
33268;SDS011;19640;50.944;5.260;2022-07-23T10:03:14;5.28;;;4.78;;
33268;SDS011;19640;50.944;5.260;2022-07-23T10:05:42;7.68;;;5.95;;
33268;SDS011;19640;50.944;5.260;2022-07-23T10:08:10;10.15;;;5.95;;
33268;SDS011;19640;50.944;5.260;2022-07-23T10:10:40;4.70;;;4.30;;
33268;SDS011;19640;50.944;5.260;2022-07-23T10:13:06;11.23;;;5.90;;
33268;SDS011;19640;50.944;5.260;2022-07-23T10:15:51;5.07;;;4.68;;
33268;SDS011;19640;50.944;5.260;2022-07-23T10:18:17;5.47;;;4.28;;
33268;SDS011;19640;50.944;5.260;2022-07-23T10:20:42;6.63;;;5.30;;
33268;SDS011;19640;50.944;5.260;2022-07-23T10:23:25;5.15;;;4.65;;
33268;SDS011;19640;50.944;5.260;2022-07-23T10:26:03;5.15;;;4.63;;
33268;SDS011;19640;50.944;5.260;2022-07-23T10:28:46;5.82;;;4.93;;
33268;SDS011;19640;50.944;5.260;2022-07-23T10:34:41;5.05;;;4.30;;
33268;SDS011;19640;50.944;5.260;2022-07-23T10:37:21;5.70;;;3.25;;
33268;SDS011;19640;50.944;5.260;2022-07-23T10:40:13;3.75;;;2.90;;
33268;SDS011;19640;50.944;5.260;2022-07-23T10:42:39;3.35;;;3.05;;
33268;SDS011;19640;50.944;5.260;2022-07-23T10:47:52;3.47;;;3.17;;
33268;SDS011;19640;50.944;5.260;2022-07-23T10:50:22;4.18;;;2.75;;
33268;SDS011;19640;50.944;5.260;2022-07-23T10:57:58;4.22;;;2.65;;
33268;SDS011;19640;50.944;5.260;2022-07-23T11:00:29;5.85;;;2.28;;
33268;SDS011;19640;50.944;5.260;2022-07-23T11:02:56;3.13;;;2.83;;
33268;SDS011;19640;50.944;5.260;2022-07-23T11:05:26;4.00;;;2.40;;
33268;SDS011;19640;50.944;5.260;2022-07-23T11:10:40;7.25;;;2.33;;
33268;SDS011;19640;50.944;5.260;2022-07-23T11:16:30;2.53;;;2.03;;
33268;SDS011;19640;50.944;5.260;2022-07-23T11:32:05;1.80;;;1.70;;
33268;SDS011;19640;50.944;5.260;2022-07-23T11:34:33;1.42;;;1.30;;
33268;SDS011;19640;50.944;5.260;2022-07-23T11:37:00;2.85;;;1.40;;
33268;SDS011;19640;50.944;5.260;2022-07-23T11:39:28;1.98;;;1.33;;
33268;SDS011;19640;50.944;5.260;2022-07-23T11:41:54;2.78;;;1.40;;
33268;SDS011;19640;50.944;5.260;2022-07-23T11:44:24;1.73;;;1.40;;
33268;SDS011;19640;50.944;5.260;2022-07-23T11:47:08;1.55;;;0.90;;
33268;SDS011;19640;50.944;5.260;2022-07-23T11:49:35;2.35;;;1.33;;
33268;SDS011;19640;50.944;5.260;2022-07-23T11:54:55;1.90;;;0.98;;
33268;SDS011;19640;50.944;5.260;2022-07-23T11:57:34;1.23;;;0.90;;
33268;SDS011;19640;50.944;5.260;2022-07-23T12:00:05;2.97;;;0.85;;
33268;SDS011;19640;50.944;5.260;2022-07-23T12:02:43;1.40;;;0.98;;
33268;SDS011;19640;50.944;5.260;2022-07-23T12:05:11;1.17;;;1.08;;
33268;SDS011;19640;50.944;5.260;2022-07-23T12:07:48;1.85;;;1.20;;
33268;SDS011;19640;50.944;5.260;2022-07-23T12:10:16;2.13;;;0.80;;
33268;SDS011;19640;50.944;5.260;2022-07-23T12:12:53;1.95;;;0.98;;
33268;SDS011;19640;50.944;5.260;2022-07-23T12:15:22;2.25;;;1.10;;
33268;SDS011;19640;50.944;5.260;2022-07-23T12:17:49;1.40;;;0.98;;
33268;SDS011;19640;50.944;5.260;2022-07-23T12:20:16;6.20;;;0.98;;
33268;SDS011;19640;50.944;5.260;2022-07-23T12:22:47;2.67;;;1.30;;
33268;SDS011;19640;50.944;5.260;2022-07-23T12:25:16;2.08;;;1.23;;
33268;SDS011;19640;50.944;5.260;2022-07-23T12:27:44;1.73;;;1.40;;
33268;SDS011;19640;50.944;5.260;2022-07-23T12:30:21;2.80;;;1.10;;
33268;SDS011;19640;50.944;5.260;2022-07-23T12:32:50;2.25;;;1.10;;
33268;SDS011;19640;50.944;5.260;2022-07-23T12:35:17;6.05;;;2.22;;
33268;SDS011;19640;50.944;5.260;2022-07-23T12:37:44;1.33;;;1.20;;
33268;SDS011;19640;50.944;5.260;2022-07-23T12:42:45;3.67;;;1.42;;
33268;SDS011;19640;50.944;5.260;2022-07-23T12:45:15;1.80;;;1.15;;
33268;SDS011;19640;50.944;5.260;2022-07-23T12:48:01;1.20;;;1.10;;
33268;SDS011;19640;50.944;5.260;2022-07-23T12:50:35;1.40;;;1.00;;
33268;SDS011;19640;50.944;5.260;2022-07-23T12:53:29;2.63;;;1.25;;
33268;SDS011;19640;50.944;5.260;2022-07-23T12:58:52;1.70;;;1.42;;
33268;SDS011;19640;50.944;5.260;2022-07-23T13:01:43;1.58;;;1.48;;
33268;SDS011;19640;50.944;5.260;2022-07-23T13:04:14;2.03;;;1.40;;
33268;SDS011;19640;50.944;5.260;2022-07-23T13:06:49;1.63;;;1.40;;
33268;SDS011;19640;50.944;5.260;2022-07-23T13:09:20;2.05;;;1.65;;
33268;SDS011;19640;50.944;5.260;2022-07-23T13:11:49;1.40;;;1.30;;
33268;SDS011;19640;50.944;5.260;2022-07-23T13:14:17;1.58;;;1.30;;
33268;SDS011;19640;50.944;5.260;2022-07-23T13:16:43;2.40;;;1.27;;
33268;SDS011;19640;50.944;5.260;2022-07-23T13:19:10;1.50;;;1.20;;
33268;SDS011;19640;50.944;5.260;2022-07-23T13:21:36;1.30;;;1.20;;
33268;SDS011;19640;50.944;5.260;2022-07-23T13:24:02;1.40;;;1.30;;
33268;SDS011;19640;50.944;5.260;2022-07-23T13:26:28;1.52;;;1.42;;
33268;SDS011;19640;50.944;5.260;2022-07-23T13:28:54;3.38;;;1.70;;
33268;SDS011;19640;50.944;5.260;2022-07-23T13:31:20;4.63;;;1.60;;
33268;SDS011;19640;50.944;5.260;2022-07-23T13:33:46;1.20;;;1.10;;
33268;SDS011;19640;50.944;5.260;2022-07-23T13:36:12;2.33;;;1.15;;
33268;SDS011;19640;50.944;5.260;2022-07-23T13:38:37;2.50;;;1.40;;
33268;SDS011;19640;50.944;5.260;2022-07-23T13:41:04;4.63;;;1.50;;
33268;SDS011;19640;50.944;5.260;2022-07-23T13:43:29;1.73;;;1.35;;
33268;SDS011;19640;50.944;5.260;2022-07-23T13:45:55;1.80;;;1.38;;
33268;SDS011;19640;50.944;5.260;2022-07-23T13:48:21;1.30;;;1.20;;
33268;SDS011;19640;50.944;5.260;2022-07-23T13:50:47;1.60;;;1.13;;
33268;SDS011;19640;50.944;5.260;2022-07-23T13:53:16;1.40;;;1.30;;
33268;SDS011;19640;50.944;5.260;2022-07-23T13:55:46;4.57;;;1.40;;
33268;SDS011;19640;50.944;5.260;2022-07-23T13:58:13;5.22;;;1.90;;
33268;SDS011;19640;50.944;5.260;2022-07-23T14:00:41;3.00;;;1.48;;
33268;SDS011;19640;50.944;5.260;2022-07-23T14:03:09;1.67;;;1.42;;
33268;SDS011;19640;50.944;5.260;2022-07-23T14:05:34;1.55;;;1.40;;
33268;SDS011;19640;50.944;5.260;2022-07-23T14:08:00;2.33;;;1.52;;
33268;SDS011;19640;50.944;5.260;2022-07-23T14:10:26;2.50;;;1.60;;
33268;SDS011;19640;50.944;5.260;2022-07-23T14:12:52;1.85;;;1.40;;
33268;SDS011;19640;50.944;5.260;2022-07-23T14:15:21;2.22;;;1.52;;
33268;SDS011;19640;50.944;5.260;2022-07-23T14:17:47;2.67;;;1.60;;
33268;SDS011;19640;50.944;5.260;2022-07-23T14:20:13;2.00;;;1.30;;
33268;SDS011;19640;50.944;5.260;2022-07-23T14:22:40;1.48;;;1.38;;
33268;SDS011;19640;50.944;5.260;2022-07-23T14:25:06;1.70;;;1.48;;
33268;SDS011;19640;50.944;5.260;2022-07-23T14:27:33;1.70;;;1.60;;
33268;SDS011;19640;50.944;5.260;2022-07-23T14:29:59;4.22;;;1.65;;
33268;SDS011;19640;50.944;5.260;2022-07-23T14:32:26;1.70;;;1.48;;
33268;SDS011;19640;50.944;5.260;2022-07-23T14:34:51;1.75;;;1.45;;
33268;SDS011;19640;50.944;5.260;2022-07-23T14:37:17;4.57;;;1.70;;
33268;SDS011;19640;50.944;5.260;2022-07-23T14:39:44;2.03;;;1.80;;
33268;SDS011;19640;50.944;5.260;2022-07-23T14:42:10;2.85;;;1.80;;
33268;SDS011;19640;50.944;5.260;2022-07-23T14:44:37;2.03;;;1.77;;
33268;SDS011;19640;50.944;5.260;2022-07-23T14:47:03;1.58;;;1.30;;
33268;SDS011;19640;50.944;5.260;2022-07-23T14:49:30;2.55;;;1.65;;
33268;SDS011;19640;50.944;5.260;2022-07-23T14:51:56;2.50;;;1.80;;
33268;SDS011;19640;50.944;5.260;2022-07-23T14:54:22;1.73;;;1.60;;
33268;SDS011;19640;50.944;5.260;2022-07-23T14:56:50;2.33;;;1.48;;
33268;SDS011;19640;50.944;5.260;2022-07-23T14:59:17;2.20;;;1.67;;
33268;SDS011;19640;50.944;5.260;2022-07-23T15:01:42;2.15;;;1.80;;
33268;SDS011;19640;50.944;5.260;2022-07-23T15:04:08;2.13;;;1.70;;
33268;SDS011;19640;50.944;5.260;2022-07-23T15:06:33;2.80;;;1.88;;
33268;SDS011;19640;50.944;5.260;2022-07-23T15:08:59;4.32;;;1.52;;
33268;SDS011;19640;50.944;5.260;2022-07-23T15:11:25;2.10;;;1.70;;
33268;SDS011;19640;50.944;5.260;2022-07-23T15:13:52;2.85;;;1.70;;
33268;SDS011;19640;50.944;5.260;2022-07-23T15:16:17;2.47;;;1.60;;
33268;SDS011;19640;50.944;5.260;2022-07-23T15:18:43;1.60;;;1.50;;
33268;SDS011;19640;50.944;5.260;2022-07-23T15:21:09;2.42;;;1.60;;
33268;SDS011;19640;50.944;5.260;2022-07-23T15:23:35;3.15;;;1.70;;
33268;SDS011;19640;50.944;5.260;2022-07-23T15:26:03;2.00;;;1.90;;
33268;SDS011;19640;50.944;5.260;2022-07-23T15:28:28;3.28;;;1.90;;
33268;SDS011;19640;50.944;5.260;2022-07-23T15:30:54;6.20;;;2.00;;
33268;SDS011;19640;50.944;5.260;2022-07-23T15:33:20;2.45;;;1.90;;
33268;SDS011;19640;50.944;5.260;2022-07-23T15:35:46;2.33;;;1.85;;
33268;SDS011;19640;50.944;5.260;2022-07-23T15:38:11;2.08;;;1.55;;
33268;SDS011;19640;50.944;5.260;2022-07-23T15:40:37;1.73;;;1.60;;
33268;SDS011;19640;50.944;5.260;2022-07-23T15:43:03;2.75;;;1.45;;
33268;SDS011;19640;50.944;5.260;2022-07-23T15:45:32;2.00;;;1.63;;
33268;SDS011;19640;50.944;5.260;2022-07-23T15:47:58;2.20;;;1.50;;
33268;SDS011;19640;50.944;5.260;2022-07-23T15:50:24;1.98;;;1.60;;